createdAt,value
2022-12-17T00:01:04.496Z,0.70
2022-12-17T00:03:50.863Z,0.70
2022-12-17T00:06:36.572Z,0.70
2022-12-17T00:09:34.094Z,0.70
2022-12-17T00:12:19.584Z,0.70
2022-12-17T00:15:05.246Z,0.70
2022-12-17T00:17:52.421Z,0.70
2022-12-17T00:20:37.868Z,0.70
2022-12-17T00:23:24.011Z,0.80
2022-12-17T00:26:10.041Z,0.80
2022-12-17T00:28:56.067Z,0.70
2022-12-17T00:31:41.615Z,0.70
2022-12-17T00:34:28.500Z,0.80
2022-12-17T00:37:14.011Z,0.80
2022-12-17T00:39:59.629Z,0.80
2022-12-17T00:42:45.471Z,0.70
2022-12-17T00:45:31.417Z,0.70
2022-12-17T00:48:16.764Z,0.80
2022-12-17T00:51:03.796Z,0.70
2022-12-17T00:53:49.309Z,0.70
2022-12-17T00:56:34.730Z,0.70
2022-12-17T00:59:20.276Z,0.80
2022-12-17T01:02:05.658Z,0.80
2022-12-17T01:04:51.164Z,0.70
2022-12-17T01:07:39.167Z,0.70
2022-12-17T01:10:25.574Z,0.60
2022-12-17T01:13:11.400Z,0.50
2022-12-17T01:15:56.742Z,0.60
2022-12-17T01:18:42.459Z,0.60
2022-12-17T01:21:28.268Z,0.60
2022-12-17T01:24:15.258Z,0.50
2022-12-17T01:27:00.690Z,0.50
2022-12-17T01:29:46.397Z,0.50
2022-12-17T01:32:31.719Z,0.50
2022-12-17T01:35:17.404Z,0.50
2022-12-17T01:38:04.251Z,0.50
2022-12-17T01:40:51.214Z,0.50
2022-12-17T01:43:50.565Z,0.50
2022-12-17T01:46:36.893Z,0.60
2022-12-17T01:49:23.429Z,0.60
2022-12-17T01:52:10.872Z,0.60
2022-12-17T01:54:56.824Z,0.70
2022-12-17T01:57:45.144Z,0.50
2022-12-17T02:00:33.261Z,0.50
2022-12-17T02:03:19.542Z,0.50
2022-12-17T02:06:29.314Z,0.40
2022-12-17T02:09:24.134Z,0.50
2022-12-17T02:12:17.368Z,0.40
2022-12-17T02:15:12.182Z,0.30
2022-12-17T02:18:02.372Z,0.40
2022-12-17T02:20:52.567Z,0.50
2022-12-17T02:23:50.703Z,0.50
2022-12-17T02:26:55.345Z,0.50
2022-12-17T02:29:43.663Z,0.50
2022-12-17T02:32:31.887Z,0.50
2022-12-17T02:35:19.873Z,0.50
2022-12-17T02:38:06.050Z,0.50
2022-12-17T02:40:52.728Z,0.50
2022-12-17T02:43:48.456Z,0.40
2022-12-17T02:46:50.557Z,0.50
2022-12-17T02:49:35.858Z,0.50
2022-12-17T02:52:22.899Z,0.60
2022-12-17T02:55:14.222Z,0.60
2022-12-17T02:57:59.610Z,0.60
2022-12-17T03:00:45.087Z,0.60
2022-12-17T03:03:31.935Z,0.60
2022-12-17T03:06:17.578Z,0.50
2022-12-17T03:09:03.649Z,0.60
2022-12-17T03:11:49.521Z,0.60
2022-12-17T03:14:34.844Z,0.60
2022-12-17T03:17:31.784Z,0.60
2022-12-17T03:20:18.982Z,0.60
2022-12-17T03:23:04.326Z,0.60
2022-12-17T03:25:49.879Z,0.60
2022-12-17T03:28:35.962Z,0.60
2022-12-17T03:31:21.554Z,0.70
2022-12-17T03:34:07.401Z,0.60
2022-12-17T03:36:54.155Z,0.60
2022-12-17T03:39:39.893Z,0.60
2022-12-17T03:42:25.347Z,0.70
2022-12-17T03:45:10.894Z,0.70
2022-12-17T03:47:56.250Z,0.70
2022-12-17T03:50:41.604Z,0.80
2022-12-17T03:53:28.586Z,0.70
2022-12-17T03:56:14.033Z,0.70
2022-12-17T03:58:59.446Z,0.70
2022-12-17T04:01:47.126Z,0.70
2022-12-17T04:04:32.654Z,0.70
2022-12-17T04:07:18.055Z,0.80
2022-12-17T04:10:07.258Z,0.80
2022-12-17T04:12:52.686Z,0.80
2022-12-17T04:15:38.265Z,0.80
2022-12-17T04:18:24.000Z,0.80
2022-12-17T04:21:09.375Z,0.80
2022-12-17T04:23:54.747Z,0.80
2022-12-17T04:26:41.727Z,0.80
2022-12-17T04:29:27.423Z,0.80
2022-12-17T04:32:13.842Z,0.80
2022-12-17T04:34:59.348Z,0.80
2022-12-17T04:37:44.676Z,0.80
2022-12-17T04:40:30.656Z,0.80
2022-12-17T04:43:24.954Z,0.80
2022-12-17T04:46:09.698Z,0.80
2022-12-17T04:48:55.332Z,0.80
2022-12-17T04:51:40.743Z,0.80
2022-12-17T04:54:26.395Z,0.70
2022-12-17T04:57:12.132Z,0.80
2022-12-17T04:59:59.176Z,0.80
2022-12-17T05:02:44.972Z,0.80
2022-12-17T05:05:30.938Z,0.80
2022-12-17T05:08:16.909Z,0.80
2022-12-17T05:11:02.328Z,0.80
2022-12-17T05:13:48.069Z,0.90
2022-12-17T05:16:35.205Z,0.80
2022-12-17T05:19:20.629Z,0.90
2022-12-17T05:22:06.127Z,0.90
2022-12-17T05:24:51.420Z,0.90
2022-12-17T05:27:33.484Z,0.90
2022-12-17T05:30:18.926Z,0.90
2022-12-17T05:33:05.719Z,0.90
2022-12-17T05:35:51.508Z,0.80
2022-12-17T05:38:37.100Z,0.80
2022-12-17T05:41:22.875Z,0.90
2022-12-17T05:44:08.466Z,0.80
2022-12-17T05:46:54.065Z,0.90
2022-12-17T05:49:40.923Z,0.80
2022-12-17T05:52:26.198Z,0.70
2022-12-17T05:55:11.616Z,0.70
2022-12-17T05:57:57.323Z,0.70
2022-12-17T06:00:43.247Z,0.70
2022-12-17T06:03:28.803Z,0.70
2022-12-17T06:06:16.164Z,0.70
2022-12-17T06:09:01.947Z,0.80
2022-12-17T06:11:47.614Z,0.60
2022-12-17T06:14:33.515Z,0.60
2022-12-17T06:17:18.939Z,0.60
2022-12-17T06:20:04.248Z,0.50
2022-12-17T06:22:51.380Z,0.50
2022-12-17T06:25:36.957Z,0.50
2022-12-17T06:28:22.807Z,0.50
2022-12-17T06:31:12.071Z,0.50
2022-12-17T06:33:58.524Z,0.40
2022-12-17T06:36:58.959Z,0.40
2022-12-17T06:39:45.875Z,0.40
2022-12-17T06:42:31.683Z,0.40
2022-12-17T06:45:16.778Z,0.40
2022-12-17T06:48:02.266Z,0.40
2022-12-17T06:50:47.641Z,0.40
2022-12-17T06:53:33.607Z,0.40
2022-12-17T06:56:20.958Z,0.40
2022-12-17T06:59:06.832Z,0.40
2022-12-17T07:01:52.576Z,0.40
2022-12-17T07:04:38.430Z,0.40
2022-12-17T07:07:23.925Z,0.40
2022-12-17T07:10:14.093Z,0.50
2022-12-17T07:13:03.952Z,0.50
2022-12-17T07:15:49.611Z,0.50
2022-12-17T07:18:34.903Z,0.50
2022-12-17T07:21:20.508Z,0.50
2022-12-17T07:24:06.141Z,0.50
2022-12-17T07:26:51.590Z,0.50
2022-12-17T07:29:38.722Z,0.40
2022-12-17T07:32:24.616Z,0.50
2022-12-17T07:35:09.921Z,0.40
2022-12-17T07:37:55.854Z,0.50
2022-12-17T07:40:41.347Z,0.60
2022-12-17T07:43:29.690Z,0.60
2022-12-17T07:46:16.799Z,0.60
2022-12-17T07:49:03.012Z,0.70
2022-12-17T07:51:48.512Z,0.70
2022-12-17T07:54:34.473Z,0.80
2022-12-17T07:57:20.114Z,0.90
2022-12-17T08:00:17.160Z,0.80
2022-12-17T08:03:04.631Z,0.90
2022-12-17T08:05:55.606Z,1.00
2022-12-17T08:08:41.011Z,1.10
2022-12-17T08:11:26.671Z,1.10
2022-12-17T08:14:13.550Z,1.10
2022-12-17T08:16:59.010Z,1.20
2022-12-17T08:19:46.070Z,1.20
2022-12-17T08:22:31.489Z,1.30
2022-12-17T08:25:16.731Z,1.30
2022-12-17T08:28:04.537Z,1.40
2022-12-17T08:30:56.591Z,1.40
2022-12-17T08:33:42.112Z,1.50
2022-12-17T08:36:29.266Z,1.60
2022-12-17T08:39:15.129Z,1.70
2022-12-17T08:42:17.152Z,1.80
2022-12-17T08:45:02.427Z,1.90
2022-12-17T08:47:47.999Z,1.90
2022-12-17T08:50:33.848Z,1.90
2022-12-17T08:53:22.520Z,1.90
2022-12-17T08:56:08.088Z,2.00
2022-12-17T08:58:58.941Z,2.00
2022-12-17T09:01:44.995Z,2.10
2022-12-17T09:04:30.684Z,2.10
2022-12-17T09:07:16.011Z,2.10
2022-12-17T09:10:03.018Z,2.10
2022-12-17T09:12:48.482Z,2.10
2022-12-17T09:15:34.135Z,2.10
2022-12-17T09:18:19.582Z,2.20
2022-12-17T09:21:12.856Z,2.10
2022-12-17T09:23:58.939Z,2.10
2022-12-17T09:26:45.944Z,2.10
2022-12-17T09:29:31.937Z,2.00
2022-12-17T09:32:18.455Z,2.00
2022-12-17T09:35:03.942Z,2.00
2022-12-17T09:37:49.620Z,2.10
2022-12-17T09:40:40.420Z,2.10
2022-12-17T09:43:40.760Z,2.10
2022-12-17T09:46:34.353Z,2.30
2022-12-17T09:49:23.167Z,2.40
2022-12-17T09:52:08.605Z,2.50
2022-12-17T09:55:01.368Z,2.60
2022-12-17T09:57:50.566Z,2.60
2022-12-17T10:00:40.778Z,2.60
2022-12-17T10:03:43.778Z,2.60
2022-12-17T10:06:31.115Z,2.50
2022-12-17T10:09:18.407Z,2.50
2022-12-17T10:12:04.390Z,2.50
2022-12-17T10:14:50.140Z,2.40
2022-12-17T10:17:38.728Z,2.40
2022-12-17T10:20:39.766Z,2.30
2022-12-17T10:23:25.165Z,2.50
2022-12-17T10:26:12.432Z,2.50
2022-12-17T10:28:58.366Z,2.60
2022-12-17T10:31:49.000Z,2.80
2022-12-17T10:34:38.722Z,3.30
2022-12-17T10:37:25.515Z,3.30
2022-12-17T10:40:15.809Z,3.50
2022-12-17T10:43:06.055Z,3.80
2022-12-17T10:45:53.498Z,4.20
2022-12-17T10:48:41.507Z,4.40
2022-12-17T10:51:39.814Z,4.50
2022-12-17T10:54:36.519Z,4.50
2022-12-17T10:57:36.110Z,4.30
2022-12-17T11:00:24.254Z,4.20
2022-12-17T11:03:09.905Z,4.30
2022-12-17T11:05:59.798Z,4.20
2022-12-17T11:08:49.815Z,4.10
2022-12-17T11:11:36.155Z,4.20
2022-12-17T11:14:24.871Z,3.80
2022-12-17T11:17:12.818Z,3.90
2022-12-17T11:20:03.815Z,4.10
2022-12-17T11:22:57.505Z,4.10
2022-12-17T11:25:57.484Z,4.10
2022-12-17T11:28:45.705Z,4.10
2022-12-17T11:31:50.415Z,4.30
2022-12-17T11:35:00.736Z,4.40
2022-12-17T11:37:52.234Z,4.60
2022-12-17T11:40:45.184Z,4.60
2022-12-17T11:43:40.412Z,4.80
2022-12-17T11:46:37.294Z,4.80
2022-12-17T11:49:30.161Z,4.90
2022-12-17T11:52:24.984Z,5.10
2022-12-17T11:55:19.043Z,5.40
2022-12-17T11:58:11.082Z,5.80
2022-12-17T12:01:05.275Z,6.10
2022-12-17T12:04:00.008Z,6.00
2022-12-17T12:06:55.333Z,6.20
2022-12-17T12:09:45.549Z,6.10
2022-12-17T12:12:42.778Z,6.00
2022-12-17T12:15:43.736Z,5.70
2022-12-17T12:18:37.415Z,5.30
2022-12-17T12:21:47.932Z,5.10
2022-12-17T12:24:50.187Z,4.90
2022-12-17T12:27:42.961Z,4.40
2022-12-17T12:30:34.166Z,4.10
2022-12-17T12:33:28.055Z,3.90
2022-12-17T12:36:19.048Z,3.70
2022-12-17T12:39:13.452Z,3.80
2022-12-17T12:42:20.582Z,3.80
2022-12-17T12:45:14.497Z,3.70
2022-12-17T12:48:17.179Z,3.70
2022-12-17T12:51:27.216Z,3.60
2022-12-17T12:54:19.087Z,3.70
2022-12-17T12:57:05.356Z,3.60
2022-12-17T12:59:53.575Z,3.60
2022-12-17T13:02:46.181Z,3.50
2022-12-17T13:05:35.548Z,3.40
2022-12-17T13:08:05.988Z,3.40
2022-12-17T13:10:36.923Z,3.50
2022-12-17T13:13:13.769Z,3.60
2022-12-17T13:15:47.083Z,3.50
2022-12-17T13:18:26.001Z,3.60
2022-12-17T13:21:05.315Z,3.70
2022-12-17T13:23:36.121Z,3.80
2022-12-17T13:26:24.180Z,3.90
2022-12-17T13:29:20.813Z,3.90
2022-12-17T13:32:07.529Z,4.00
2022-12-17T13:34:48.629Z,4.00
2022-12-17T13:37:27.535Z,4.30
2022-12-17T13:40:03.386Z,4.20
2022-12-17T13:42:35.803Z,4.60
2022-12-17T13:45:04.648Z,4.80
2022-12-17T13:47:35.280Z,5.10
2022-12-17T13:50:36.195Z,5.20
2022-12-17T13:53:12.041Z,5.60
2022-12-17T13:55:40.512Z,6.40
2022-12-17T13:58:23.112Z,6.90
2022-12-17T14:00:51.595Z,7.50
2022-12-17T14:03:42.902Z,7.90
2022-12-17T14:06:12.944Z,8.10
2022-12-17T14:08:42.003Z,8.00
2022-12-17T14:11:26.491Z,7.60
2022-12-17T14:13:56.092Z,7.60
2022-12-17T14:16:24.643Z,7.40
2022-12-17T14:18:57.009Z,7.10
2022-12-17T14:21:27.738Z,6.70
2022-12-17T14:23:57.300Z,6.50
2022-12-17T14:26:25.570Z,6.10
2022-12-17T14:28:56.597Z,5.60
2022-12-17T14:31:28.700Z,5.30
2022-12-17T14:34:07.753Z,5.00
2022-12-17T14:36:37.860Z,4.80
2022-12-17T14:39:17.132Z,4.40
2022-12-17T14:42:02.969Z,4.20
2022-12-17T14:44:32.970Z,4.00
2022-12-17T14:47:21.082Z,3.90
2022-12-17T14:49:56.739Z,3.80
2022-12-17T14:52:31.876Z,3.70
2022-12-17T14:55:00.164Z,3.50
2022-12-17T14:57:28.433Z,3.40
2022-12-17T14:59:58.039Z,3.20
2022-12-17T15:02:28.390Z,2.90
2022-12-17T15:04:59.235Z,2.60
2022-12-17T15:07:30.573Z,2.30
2022-12-17T15:09:59.500Z,2.00
2022-12-17T15:12:29.167Z,1.80
2022-12-17T15:14:58.736Z,1.50
2022-12-17T15:17:27.065Z,1.30
2022-12-17T15:19:56.362Z,1.20
2022-12-17T15:22:24.822Z,1.10
2022-12-17T15:24:53.094Z,0.80
2022-12-17T15:27:21.382Z,0.70
2022-12-17T15:29:49.609Z,0.60
2022-12-17T15:32:21.292Z,0.40
2022-12-17T15:34:50.524Z,0.30
2022-12-17T15:37:25.284Z,0.20
2022-12-17T15:39:53.795Z,0.00
2022-12-17T15:42:39.500Z,-0.10
2022-12-17T15:45:09.243Z,-0.20
2022-12-17T15:47:38.886Z,-0.20
2022-12-17T15:50:08.267Z,-0.30
2022-12-17T15:52:36.470Z,-0.40
2022-12-17T15:55:04.759Z,-0.50
2022-12-17T15:57:32.984Z,-0.60
2022-12-17T16:00:01.130Z,-0.50
2022-12-17T16:02:29.488Z,-0.50
2022-12-17T16:04:59.324Z,-0.70
2022-12-17T16:07:27.882Z,-0.80
2022-12-17T16:10:00.208Z,-0.70
2022-12-17T16:12:31.550Z,-0.90
2022-12-17T16:14:59.804Z,-0.80
2022-12-17T16:17:28.078Z,-0.70
2022-12-17T16:19:56.268Z,-0.80
2022-12-17T16:22:25.935Z,-0.80
2022-12-17T16:24:54.236Z,-1.00
2022-12-17T16:27:22.572Z,-0.80
2022-12-17T16:29:50.870Z,-1.00
2022-12-17T16:32:22.415Z,-1.00
2022-12-17T16:34:50.627Z,-1.00
2022-12-17T16:37:18.959Z,-0.90
2022-12-17T16:39:52.865Z,-0.90
2022-12-17T16:42:27.943Z,-0.90
2022-12-17T16:44:56.335Z,-0.90
2022-12-17T16:47:24.554Z,-0.90
2022-12-17T16:49:52.779Z,-0.90
2022-12-17T16:52:20.949Z,-0.70
2022-12-17T16:54:50.562Z,-0.90
2022-12-17T16:57:18.861Z,-0.70
2022-12-17T16:59:47.058Z,-0.90
2022-12-17T17:02:16.564Z,-0.80
2022-12-17T17:04:44.840Z,-1.10
2022-12-17T17:07:13.061Z,-1.10
2022-12-17T17:09:42.502Z,-1.10
2022-12-17T17:12:12.722Z,-1.20
2022-12-17T17:14:43.882Z,-1.30
2022-12-17T17:17:12.144Z,-1.20
2022-12-17T17:19:40.337Z,-1.40
2022-12-17T17:22:08.527Z,-1.40
2022-12-17T17:24:36.754Z,-1.10
2022-12-17T17:27:05.143Z,-1.50
2022-12-17T17:29:34.752Z,-1.50
2022-12-17T17:32:11.745Z,-1.60
2022-12-17T17:34:41.841Z,-1.70
2022-12-17T17:37:10.326Z,-1.70
2022-12-17T17:39:38.513Z,-1.70
2022-12-17T17:42:06.892Z,-1.80
2022-12-17T17:44:36.635Z,-1.70
2022-12-17T17:47:05.357Z,-1.70
2022-12-17T17:49:33.680Z,-1.70
2022-12-17T17:52:10.646Z,-1.70
2022-12-17T17:54:40.340Z,-1.60
2022-12-17T17:57:09.023Z,-1.60
2022-12-17T17:59:39.672Z,-1.70
2022-12-17T18:02:09.243Z,-1.80
2022-12-17T18:04:37.675Z,-1.80
2022-12-17T18:09:54.114Z,-1.80
2022-12-17T18:12:40.548Z,-1.90
2022-12-17T18:15:15.830Z,-1.80
2022-12-17T18:17:45.115Z,-1.90
2022-12-17T18:20:13.865Z,-1.90
2022-12-17T18:22:42.201Z,-1.80
2022-12-17T18:25:10.680Z,-1.80
2022-12-17T18:27:39.048Z,-1.80
2022-12-17T18:30:09.893Z,-1.80
2022-12-17T18:32:38.082Z,-1.90
2022-12-17T18:35:07.285Z,-1.70
2022-12-17T18:37:35.646Z,-1.90
2022-12-17T18:40:04.008Z,-1.80
2022-12-17T18:42:49.776Z,-2.00
2022-12-17T18:45:19.558Z,-1.90
2022-12-17T18:47:47.897Z,-1.60
2022-12-17T18:50:16.271Z,-2.00
2022-12-17T18:52:45.555Z,-1.90
2022-12-17T18:55:13.807Z,-1.90
2022-12-17T18:57:42.215Z,-1.50
2022-12-17T19:00:11.835Z,-1.70
2022-12-17T19:02:41.664Z,-2.00
2022-12-17T19:05:10.392Z,-1.50
2022-12-17T19:07:38.677Z,-1.90
2022-12-17T19:10:07.939Z,-1.10
2022-12-17T19:12:36.183Z,-1.90
2022-12-17T19:15:04.775Z,-1.90
2022-12-17T19:17:33.062Z,-2.00
2022-12-17T19:20:02.736Z,-2.00
2022-12-17T19:22:31.001Z,-1.90
2022-12-17T19:24:59.251Z,-2.00
2022-12-17T19:27:28.969Z,-2.00
2022-12-17T19:29:57.559Z,-2.00
2022-12-17T19:32:26.292Z,-2.10
2022-12-17T19:34:54.609Z,-2.10
2022-12-17T19:37:24.381Z,-2.20
2022-12-17T19:39:52.620Z,-2.00
2022-12-17T19:42:33.472Z,-2.20
2022-12-17T19:45:05.812Z,-2.30
2022-12-17T19:47:34.082Z,-2.30
2022-12-17T19:50:02.344Z,-2.20
2022-12-17T19:52:32.126Z,-2.30
2022-12-17T19:55:00.373Z,-2.30
2022-12-17T19:57:28.662Z,-2.40
2022-12-17T19:59:56.899Z,-2.40
2022-12-17T20:02:30.984Z,-2.40
2022-12-17T20:05:00.713Z,-2.40
2022-12-17T20:07:28.929Z,-2.40
2022-12-17T20:09:58.859Z,-2.50
2022-12-17T20:12:27.181Z,-2.40
2022-12-17T20:14:55.385Z,-2.50
2022-12-17T20:17:25.981Z,-2.60
2022-12-17T20:19:55.251Z,-2.40
2022-12-17T20:22:26.171Z,-2.60
2022-12-17T20:24:54.415Z,-2.60
2022-12-17T20:27:24.106Z,-2.60
2022-12-17T20:29:52.295Z,-2.70
2022-12-17T20:32:21.423Z,-2.70
2022-12-17T20:34:49.810Z,-2.80
2022-12-17T20:37:18.258Z,-2.80
2022-12-17T20:39:46.603Z,-2.80
2022-12-17T20:42:14.867Z,-2.80
2022-12-17T20:44:50.051Z,-2.90
2022-12-17T20:47:21.400Z,-2.80
2022-12-17T20:49:49.664Z,-2.90
2022-12-17T20:52:17.989Z,-2.90
2022-12-17T20:54:46.380Z,-2.90
2022-12-17T20:57:14.668Z,-2.90
2022-12-17T20:59:44.543Z,-2.90
2022-12-17T21:02:12.883Z,-3.00
2022-12-17T21:04:41.209Z,-3.00
2022-12-17T21:07:09.504Z,-3.00
2022-12-17T21:09:37.743Z,-3.00
2022-12-17T21:12:06.254Z,-3.00
2022-12-17T21:14:35.886Z,-3.10
2022-12-17T21:17:05.897Z,-3.10
2022-12-17T21:19:34.290Z,-3.10
2022-12-17T21:22:02.584Z,-3.10
2022-12-17T21:24:33.041Z,-3.10
2022-12-17T21:27:01.300Z,-2.90
2022-12-17T21:29:29.588Z,-3.10
2022-12-17T21:31:57.898Z,-3.10
2022-12-17T21:34:29.338Z,-3.00
2022-12-17T21:36:57.662Z,-3.00
2022-12-17T21:39:25.862Z,-2.80
2022-12-17T21:42:11.635Z,-2.80
2022-12-17T21:44:39.884Z,-2.70
2022-12-17T21:47:08.279Z,-2.60
2022-12-17T21:49:37.955Z,-2.50
2022-12-17T21:52:06.588Z,-2.30
2022-12-17T21:54:36.553Z,-2.30
2022-12-17T21:57:06.603Z,-2.30
2022-12-17T21:59:34.815Z,-2.20
2022-12-17T22:02:03.477Z,-2.20
2022-12-17T22:04:31.968Z,-2.20
2022-12-17T22:07:01.688Z,-2.20
2022-12-17T22:09:39.475Z,-2.20
2022-12-17T22:12:36.580Z,-2.10
2022-12-17T22:15:08.310Z,-2.10
2022-12-17T22:17:37.165Z,-2.00
2022-12-17T22:20:05.835Z,-2.00
2022-12-17T22:22:35.770Z,-2.00
2022-12-17T22:25:09.313Z,-1.80
2022-12-17T22:27:39.996Z,-2.00
2022-12-17T22:30:30.470Z,-2.00
2022-12-17T22:33:02.898Z,-1.90
2022-12-17T22:37:07.392Z,-1.90
2022-12-17T22:40:43.216Z,-1.80
2022-12-17T22:44:35.440Z,-1.70
2022-12-17T22:44:47.681Z,-1.60
2022-12-17T22:47:11.217Z,-1.60
2022-12-17T22:49:43.948Z,-1.60
2022-12-17T22:52:12.833Z,-1.60
2022-12-17T22:54:42.717Z,-1.70
2022-12-17T22:57:36.364Z,-1.60
2022-12-17T22:59:59.625Z,-1.60
2022-12-17T23:02:27.978Z,-1.60
2022-12-17T23:04:56.209Z,-1.50
2022-12-17T23:07:29.918Z,-1.50
2022-12-17T23:10:01.353Z,-1.60
2022-12-17T23:12:46.924Z,-1.70
2022-12-17T23:15:15.111Z,-1.70
2022-12-17T23:17:43.399Z,-1.60
2022-12-17T23:20:12.421Z,-1.60
2022-12-17T23:22:40.632Z,-1.60
2022-12-17T23:25:11.318Z,-1.60
2022-12-17T23:27:39.757Z,-1.60
2022-12-17T23:30:09.069Z,-1.40
2022-12-17T23:32:37.844Z,-1.60
2022-12-17T23:35:07.084Z,-1.60
2022-12-17T23:37:39.779Z,-1.50
2022-12-17T23:40:11.030Z,-1.50
2022-12-17T23:42:39.484Z,-1.40
2022-12-17T23:45:11.210Z,-1.50
2022-12-17T23:47:39.627Z,-1.40
2022-12-17T23:50:10.233Z,-1.40
2022-12-17T23:52:39.341Z,-1.50
2022-12-17T23:55:11.238Z,-1.60
2022-12-17T23:57:39.520Z,-1.70
